sensor_id;sensor_type;location;lat;lon;timestamp;temperature;humidity
1880;DHT22;49285;49.002;8.390;2023-02-14T00:02:09;4.00;99.90
1880;DHT22;49285;49.002;8.390;2023-02-14T00:04:35;4.00;99.90
1880;DHT22;49285;49.002;8.390;2023-02-14T00:07:08;4.00;99.90
1880;DHT22;49285;49.002;8.390;2023-02-14T00:09:34;4.00;99.90
1880;DHT22;49285;49.002;8.390;2023-02-14T00:11:59;3.90;99.90
1880;DHT22;49285;49.002;8.390;2023-02-14T00:14:25;3.90;99.90
1880;DHT22;49285;49.002;8.390;2023-02-14T00:17:09;4.10;99.90
1880;DHT22;49285;49.002;8.390;2023-02-14T00:19:35;3.90;99.90
1880;DHT22;49285;49.002;8.390;2023-02-14T00:22:01;3.90;99.90
1880;DHT22;49285;49.002;8.390;2023-02-14T00:24:27;3.90;99.90
1880;DHT22;49285;49.002;8.390;2023-02-14T00:26:53;3.90;99.90
1880;DHT22;49285;49.002;8.390;2023-02-14T00:29:21;4.10;99.90
1880;DHT22;49285;49.002;8.390;2023-02-14T00:31:47;4.20;99.90
1880;DHT22;49285;49.002;8.390;2023-02-14T00:34:15;4.30;99.90
1880;DHT22;49285;49.002;8.390;2023-02-14T00:36:41;4.20;99.90
1880;DHT22;49285;49.002;8.390;2023-02-14T00:39:09;4.20;99.90
1880;DHT22;49285;49.002;8.390;2023-02-14T00:41:35;4.20;99.90
1880;DHT22;49285;49.002;8.390;2023-02-14T00:44:01;4.20;99.90
1880;DHT22;49285;49.002;8.390;2023-02-14T00:46:27;4.20;99.90
1880;DHT22;49285;49.002;8.390;2023-02-14T00:48:53;4.20;99.90
1880;DHT22;49285;49.002;8.390;2023-02-14T00:51:19;4.20;99.90
1880;DHT22;49285;49.002;8.390;2023-02-14T00:53:46;4.20;99.90
1880;DHT22;49285;49.002;8.390;2023-02-14T00:56:13;4.10;99.90
1880;DHT22;49285;49.002;8.390;2023-02-14T00:58:40;4.10;99.90
1880;DHT22;49285;49.002;8.390;2023-02-14T01:01:06;4.10;99.90
1880;DHT22;49285;49.002;8.390;2023-02-14T01:03:32;4.10;99.90
1880;DHT22;49285;49.002;8.390;2023-02-14T01:05:58;4.10;99.90
1880;DHT22;49285;49.002;8.390;2023-02-14T01:08:24;4.20;99.90
1880;DHT22;49285;49.002;8.390;2023-02-14T01:10:50;4.20;99.90
1880;DHT22;49285;49.002;8.390;2023-02-14T01:13:16;4.20;99.90
1880;DHT22;49285;49.002;8.390;2023-02-14T01:15:45;4.20;99.90
1880;DHT22;49285;49.002;8.390;2023-02-14T01:18:11;4.10;99.90
1880;DHT22;49285;49.002;8.390;2023-02-14T01:20:37;4.20;99.90
1880;DHT22;49285;49.002;8.390;2023-02-14T01:23:02;4.20;99.90
1880;DHT22;49285;49.002;8.390;2023-02-14T01:25:28;4.30;99.90
1880;DHT22;49285;49.002;8.390;2023-02-14T01:27:54;4.40;99.90
1880;DHT22;49285;49.002;8.390;2023-02-14T01:30:20;4.30;99.90
1880;DHT22;49285;49.002;8.390;2023-02-14T01:32:46;4.20;99.90
1880;DHT22;49285;49.002;8.390;2023-02-14T01:35:11;4.20;99.90
1880;DHT22;49285;49.002;8.390;2023-02-14T01:37:37;4.20;99.90
1880;DHT22;49285;49.002;8.390;2023-02-14T01:40:05;4.20;99.90
1880;DHT22;49285;49.002;8.390;2023-02-14T01:42:33;4.20;99.90
1880;DHT22;49285;49.002;8.390;2023-02-14T01:45:03;4.30;99.90
1880;DHT22;49285;49.002;8.390;2023-02-14T01:47:32;4.30;99.90
1880;DHT22;49285;49.002;8.390;2023-02-14T01:50:14;4.20;99.90
1880;DHT22;49285;49.002;8.390;2023-02-14T01:52:44;4.10;99.90
1880;DHT22;49285;49.002;8.390;2023-02-14T01:55:16;4.20;99.90
1880;DHT22;49285;49.002;8.390;2023-02-14T01:57:46;4.00;99.90
1880;DHT22;49285;49.002;8.390;2023-02-14T02:00:14;4.00;99.90
1880;DHT22;49285;49.002;8.390;2023-02-14T02:03:00;4.00;99.90
1880;DHT22;49285;49.002;8.390;2023-02-14T02:05:28;4.10;99.90
1880;DHT22;49285;49.002;8.390;2023-02-14T02:07:56;4.10;99.90
1880;DHT22;49285;49.002;8.390;2023-02-14T02:10:23;3.80;99.90
1880;DHT22;49285;49.002;8.390;2023-02-14T02:12:51;3.90;99.90
1880;DHT22;49285;49.002;8.390;2023-02-14T02:15:18;3.90;99.90
1880;DHT22;49285;49.002;8.390;2023-02-14T02:18:18;3.90;99.90
1880;DHT22;49285;49.002;8.390;2023-02-14T02:24:30;4.10;99.90
1880;DHT22;49285;49.002;8.390;2023-02-14T02:30:24;4.10;99.90
1880;DHT22;49285;49.002;8.390;2023-02-14T02:35:51;4.10;99.90
1880;DHT22;49285;49.002;8.390;2023-02-14T02:41:26;4.00;99.90
1880;DHT22;49285;49.002;8.390;2023-02-14T02:44:15;4.20;99.90
1880;DHT22;49285;49.002;8.390;2023-02-14T02:49:56;4.00;99.90
1880;DHT22;49285;49.002;8.390;2023-02-14T02:52:46;3.90;99.90
1880;DHT22;49285;49.002;8.390;2023-02-14T02:59:09;3.80;99.90
1880;DHT22;49285;49.002;8.390;2023-02-14T03:01:28;3.90;99.90
1880;DHT22;49285;49.002;8.390;2023-02-14T03:04:06;4.00;99.90
1880;DHT22;49285;49.002;8.390;2023-02-14T03:06:52;4.00;99.90
1880;DHT22;49285;49.002;8.390;2023-02-14T03:15:38;4.20;99.90
1880;DHT22;49285;49.002;8.390;2023-02-14T03:21:05;4.20;99.90
1880;DHT22;49285;49.002;8.390;2023-02-14T03:23:42;4.30;99.90
1880;DHT22;49285;49.002;8.390;2023-02-14T03:31:40;4.20;99.90
1880;DHT22;49285;49.002;8.390;2023-02-14T03:42:19;4.40;99.90
1880;DHT22;49285;49.002;8.390;2023-02-14T03:44:46;4.40;99.90
1880;DHT22;49285;49.002;8.390;2023-02-14T03:47:16;4.40;99.90
1880;DHT22;49285;49.002;8.390;2023-02-14T03:49:47;4.50;99.90
1880;DHT22;49285;49.002;8.390;2023-02-14T03:52:15;4.50;99.90
1880;DHT22;49285;49.002;8.390;2023-02-14T03:54:44;4.50;99.90
1880;DHT22;49285;49.002;8.390;2023-02-14T03:57:17;4.50;99.90
1880;DHT22;49285;49.002;8.390;2023-02-14T03:59:45;4.50;99.90
1880;DHT22;49285;49.002;8.390;2023-02-14T04:02:22;4.50;99.90
1880;DHT22;49285;49.002;8.390;2023-02-14T04:04:50;4.50;99.90
1880;DHT22;49285;49.002;8.390;2023-02-14T04:07:19;4.50;99.90
1880;DHT22;49285;49.002;8.390;2023-02-14T04:09:46;4.50;99.90
1880;DHT22;49285;49.002;8.390;2023-02-14T04:12:12;4.40;99.90
1880;DHT22;49285;49.002;8.390;2023-02-14T04:14:38;4.40;99.90
1880;DHT22;49285;49.002;8.390;2023-02-14T04:17:04;4.40;99.90
1880;DHT22;49285;49.002;8.390;2023-02-14T04:19:49;4.30;99.90
1880;DHT22;49285;49.002;8.390;2023-02-14T04:22:14;4.30;99.90
1880;DHT22;49285;49.002;8.390;2023-02-14T04:24:40;4.30;99.90
1880;DHT22;49285;49.002;8.390;2023-02-14T04:27:05;4.20;99.90
1880;DHT22;49285;49.002;8.390;2023-02-14T04:29:39;4.10;99.90
1880;DHT22;49285;49.002;8.390;2023-02-14T04:32:07;4.20;99.90
1880;DHT22;49285;49.002;8.390;2023-02-14T04:34:33;4.20;99.90
1880;DHT22;49285;49.002;8.390;2023-02-14T04:36:58;4.10;99.90
1880;DHT22;49285;49.002;8.390;2023-02-14T04:39:24;4.10;99.90
1880;DHT22;49285;49.002;8.390;2023-02-14T04:41:50;4.10;99.90
1880;DHT22;49285;49.002;8.390;2023-02-14T04:44:15;4.10;99.90
1880;DHT22;49285;49.002;8.390;2023-02-14T04:46:41;4.10;99.90
1880;DHT22;49285;49.002;8.390;2023-02-14T04:49:06;4.10;99.90
1880;DHT22;49285;49.002;8.390;2023-02-14T04:51:32;4.10;99.90
1880;DHT22;49285;49.002;8.390;2023-02-14T04:53:57;4.10;99.90
1880;DHT22;49285;49.002;8.390;2023-02-14T04:56:23;4.10;99.90
1880;DHT22;49285;49.002;8.390;2023-02-14T04:58:50;4.00;99.90
1880;DHT22;49285;49.002;8.390;2023-02-14T05:01:16;3.90;99.90
1880;DHT22;49285;49.002;8.390;2023-02-14T05:03:41;4.00;99.90
1880;DHT22;49285;49.002;8.390;2023-02-14T05:06:07;4.00;99.90
1880;DHT22;49285;49.002;8.390;2023-02-14T05:08:32;3.90;99.90
1880;DHT22;49285;49.002;8.390;2023-02-14T05:10:58;3.90;99.90
1880;DHT22;49285;49.002;8.390;2023-02-14T05:13:23;3.90;99.90
1880;DHT22;49285;49.002;8.390;2023-02-14T05:15:49;3.90;99.90
1880;DHT22;49285;49.002;8.390;2023-02-14T05:18:14;3.90;99.90
1880;DHT22;49285;49.002;8.390;2023-02-14T05:20:40;3.80;99.90
1880;DHT22;49285;49.002;8.390;2023-02-14T05:23:05;3.80;99.90
1880;DHT22;49285;49.002;8.390;2023-02-14T05:25:40;3.80;99.90
1880;DHT22;49285;49.002;8.390;2023-02-14T05:28:06;3.80;99.90
1880;DHT22;49285;49.002;8.390;2023-02-14T05:30:31;3.70;99.90
1880;DHT22;49285;49.002;8.390;2023-02-14T05:32:57;3.80;99.90
1880;DHT22;49285;49.002;8.390;2023-02-14T05:35:23;3.80;99.90
1880;DHT22;49285;49.002;8.390;2023-02-14T05:37:48;3.80;99.90
1880;DHT22;49285;49.002;8.390;2023-02-14T05:40:14;3.80;99.90
1880;DHT22;49285;49.002;8.390;2023-02-14T05:42:41;3.80;99.90
1880;DHT22;49285;49.002;8.390;2023-02-14T05:45:07;3.70;99.90
1880;DHT22;49285;49.002;8.390;2023-02-14T05:47:33;3.80;99.90
1880;DHT22;49285;49.002;8.390;2023-02-14T05:49:59;3.70;99.90
1880;DHT22;49285;49.002;8.390;2023-02-14T05:52:24;3.70;99.90
1880;DHT22;49285;49.002;8.390;2023-02-14T05:54:50;3.70;99.90
1880;DHT22;49285;49.002;8.390;2023-02-14T05:57:16;3.60;99.90
1880;DHT22;49285;49.002;8.390;2023-02-14T05:59:42;3.60;99.90
1880;DHT22;49285;49.002;8.390;2023-02-14T06:02:07;3.60;99.90
1880;DHT22;49285;49.002;8.390;2023-02-14T06:04:33;3.60;99.90
1880;DHT22;49285;49.002;8.390;2023-02-14T06:06:58;3.60;99.90
1880;DHT22;49285;49.002;8.390;2023-02-14T06:09:24;3.60;99.90
1880;DHT22;49285;49.002;8.390;2023-02-14T06:11:49;3.60;99.90
1880;DHT22;49285;49.002;8.390;2023-02-14T06:14:15;3.60;99.90
1880;DHT22;49285;49.002;8.390;2023-02-14T06:16:41;3.60;99.90
1880;DHT22;49285;49.002;8.390;2023-02-14T06:19:06;3.60;99.90
1880;DHT22;49285;49.002;8.390;2023-02-14T06:21:33;3.60;99.90
1880;DHT22;49285;49.002;8.390;2023-02-14T06:23:59;3.60;99.90
1880;DHT22;49285;49.002;8.390;2023-02-14T06:26:25;3.50;99.90
1880;DHT22;49285;49.002;8.390;2023-02-14T06:28:56;3.50;99.90
1880;DHT22;49285;49.002;8.390;2023-02-14T06:31:23;3.50;99.90
1880;DHT22;49285;49.002;8.390;2023-02-14T06:33:50;3.50;99.90
1880;DHT22;49285;49.002;8.390;2023-02-14T06:36:16;3.50;99.90
1880;DHT22;49285;49.002;8.390;2023-02-14T06:38:41;3.50;99.90
1880;DHT22;49285;49.002;8.390;2023-02-14T06:41:09;3.50;99.90
1880;DHT22;49285;49.002;8.390;2023-02-14T06:43:36;3.50;99.90
1880;DHT22;49285;49.002;8.390;2023-02-14T06:46:01;3.60;99.90
1880;DHT22;49285;49.002;8.390;2023-02-14T06:48:27;3.60;99.90
1880;DHT22;49285;49.002;8.390;2023-02-14T06:50:53;3.60;99.90
1880;DHT22;49285;49.002;8.390;2023-02-14T06:53:19;3.60;99.90
1880;DHT22;49285;49.002;8.390;2023-02-14T06:55:45;3.60;99.90
1880;DHT22;49285;49.002;8.390;2023-02-14T06:58:11;3.60;99.90
1880;DHT22;49285;49.002;8.390;2023-02-14T07:00:36;3.60;99.90
1880;DHT22;49285;49.002;8.390;2023-02-14T07:03:02;3.60;99.90
1880;DHT22;49285;49.002;8.390;2023-02-14T07:05:27;3.70;99.90
1880;DHT22;49285;49.002;8.390;2023-02-14T07:07:56;3.60;99.90
1880;DHT22;49285;49.002;8.390;2023-02-14T07:10:21;3.60;99.90
1880;DHT22;49285;49.002;8.390;2023-02-14T07:12:47;3.60;99.90
1880;DHT22;49285;49.002;8.390;2023-02-14T07:15:13;3.70;99.90
1880;DHT22;49285;49.002;8.390;2023-02-14T07:17:39;3.70;99.90
1880;DHT22;49285;49.002;8.390;2023-02-14T07:20:06;3.80;99.90
1880;DHT22;49285;49.002;8.390;2023-02-14T07:22:33;3.80;99.90
1880;DHT22;49285;49.002;8.390;2023-02-14T07:24:58;3.80;99.90
1880;DHT22;49285;49.002;8.390;2023-02-14T07:27:24;3.80;99.90
1880;DHT22;49285;49.002;8.390;2023-02-14T07:29:50;3.80;99.90
1880;DHT22;49285;49.002;8.390;2023-02-14T07:32:15;3.80;99.90
1880;DHT22;49285;49.002;8.390;2023-02-14T07:34:41;3.90;99.90
1880;DHT22;49285;49.002;8.390;2023-02-14T07:37:07;3.90;99.90
1880;DHT22;49285;49.002;8.390;2023-02-14T07:39:33;3.90;99.90
1880;DHT22;49285;49.002;8.390;2023-02-14T07:41:59;4.00;99.90
1880;DHT22;49285;49.002;8.390;2023-02-14T07:44:24;4.00;99.90
1880;DHT22;49285;49.002;8.390;2023-02-14T07:46:50;4.00;99.90
1880;DHT22;49285;49.002;8.390;2023-02-14T07:49:15;4.00;99.90
1880;DHT22;49285;49.002;8.390;2023-02-14T07:51:41;4.00;99.90
1880;DHT22;49285;49.002;8.390;2023-02-14T07:54:07;4.10;99.90
1880;DHT22;49285;49.002;8.390;2023-02-14T07:56:32;4.10;99.90
1880;DHT22;49285;49.002;8.390;2023-02-14T07:58:58;4.10;99.90
1880;DHT22;49285;49.002;8.390;2023-02-14T08:01:24;4.10;99.90
1880;DHT22;49285;49.002;8.390;2023-02-14T08:03:49;4.00;99.90
1880;DHT22;49285;49.002;8.390;2023-02-14T08:06:19;4.00;99.90
1880;DHT22;49285;49.002;8.390;2023-02-14T08:08:45;4.10;99.90
1880;DHT22;49285;49.002;8.390;2023-02-14T08:11:12;4.10;99.90
1880;DHT22;49285;49.002;8.390;2023-02-14T08:13:57;4.10;99.90
1880;DHT22;49285;49.002;8.390;2023-02-14T08:16:23;4.10;99.90
1880;DHT22;49285;49.002;8.390;2023-02-14T08:18:48;4.20;99.90
1880;DHT22;49285;49.002;8.390;2023-02-14T08:21:14;4.10;99.90
1880;DHT22;49285;49.002;8.390;2023-02-14T08:23:41;4.20;99.90
1880;DHT22;49285;49.002;8.390;2023-02-14T08:26:07;4.20;99.90
1880;DHT22;49285;49.002;8.390;2023-02-14T08:28:33;4.20;99.90
1880;DHT22;49285;49.002;8.390;2023-02-14T08:31:00;4.30;99.90
1880;DHT22;49285;49.002;8.390;2023-02-14T08:33:26;4.40;99.90
1880;DHT22;49285;49.002;8.390;2023-02-14T08:35:51;4.40;99.90
1880;DHT22;49285;49.002;8.390;2023-02-14T08:38:17;4.30;99.90
1880;DHT22;49285;49.002;8.390;2023-02-14T08:40:42;4.30;99.90
1880;DHT22;49285;49.002;8.390;2023-02-14T08:43:09;4.50;99.90
1880;DHT22;49285;49.002;8.390;2023-02-14T08:45:35;4.60;99.90
1880;DHT22;49285;49.002;8.390;2023-02-14T08:48:05;4.70;99.90
1880;DHT22;49285;49.002;8.390;2023-02-14T08:50:31;4.80;99.90
1880;DHT22;49285;49.002;8.390;2023-02-14T08:52:57;4.80;99.90
1880;DHT22;49285;49.002;8.390;2023-02-14T08:55:23;4.90;99.90
1880;DHT22;49285;49.002;8.390;2023-02-14T08:57:48;4.90;99.90
1880;DHT22;49285;49.002;8.390;2023-02-14T09:00:14;5.00;99.90
1880;DHT22;49285;49.002;8.390;2023-02-14T09:02:40;5.00;99.90
1880;DHT22;49285;49.002;8.390;2023-02-14T09:05:06;5.00;99.90
1880;DHT22;49285;49.002;8.390;2023-02-14T09:07:34;5.10;99.90
1880;DHT22;49285;49.002;8.390;2023-02-14T09:09:59;5.20;99.90
1880;DHT22;49285;49.002;8.390;2023-02-14T09:12:25;5.20;99.90
1880;DHT22;49285;49.002;8.390;2023-02-14T09:14:50;5.10;99.90
1880;DHT22;49285;49.002;8.390;2023-02-14T09:17:16;4.80;99.90
1880;DHT22;49285;49.002;8.390;2023-02-14T09:19:42;4.70;99.90
1880;DHT22;49285;49.002;8.390;2023-02-14T09:22:09;4.70;99.90
1880;DHT22;49285;49.002;8.390;2023-02-14T09:24:36;4.90;99.90
1880;DHT22;49285;49.002;8.390;2023-02-14T09:27:03;4.80;99.90
1880;DHT22;49285;49.002;8.390;2023-02-14T09:29:29;4.80;99.90
1880;DHT22;49285;49.002;8.390;2023-02-14T09:31:56;4.80;99.90
1880;DHT22;49285;49.002;8.390;2023-02-14T09:34:22;4.90;99.90
1880;DHT22;49285;49.002;8.390;2023-02-14T09:37:09;4.90;99.90
1880;DHT22;49285;49.002;8.390;2023-02-14T09:39:35;5.00;99.90
1880;DHT22;49285;49.002;8.390;2023-02-14T09:49:57;5.20;99.90
1880;DHT22;49285;49.002;8.390;2023-02-14T09:52:26;5.20;99.90
1880;DHT22;49285;49.002;8.390;2023-02-14T09:54:57;5.30;99.90
1880;DHT22;49285;49.002;8.390;2023-02-14T09:57:53;5.30;99.90
1880;DHT22;49285;49.002;8.390;2023-02-14T10:00:37;5.30;99.90
1880;DHT22;49285;49.002;8.390;2023-02-14T10:03:37;5.30;99.90
1880;DHT22;49285;49.002;8.390;2023-02-14T10:06:38;5.30;99.90
1880;DHT22;49285;49.002;8.390;2023-02-14T10:11:36;5.40;99.90
1880;DHT22;49285;49.002;8.390;2023-02-14T10:14:14;5.60;99.90
1880;DHT22;49285;49.002;8.390;2023-02-14T10:19:26;5.70;99.90
1880;DHT22;49285;49.002;8.390;2023-02-14T10:22:00;5.70;99.90
1880;DHT22;49285;49.002;8.390;2023-02-14T10:27:00;5.80;99.90
1880;DHT22;49285;49.002;8.390;2023-02-14T10:29:27;5.90;99.90
1880;DHT22;49285;49.002;8.390;2023-02-14T10:32:00;5.90;99.90
1880;DHT22;49285;49.002;8.390;2023-02-14T10:42:40;5.90;99.90
1880;DHT22;49285;49.002;8.390;2023-02-14T10:45:15;5.90;99.90
1880;DHT22;49285;49.002;8.390;2023-02-14T10:47:49;6.00;99.90
1880;DHT22;49285;49.002;8.390;2023-02-14T10:50:38;5.90;99.90
1880;DHT22;49285;49.002;8.390;2023-02-14T10:58:12;6.20;99.90
1880;DHT22;49285;49.002;8.390;2023-02-14T11:00:53;6.20;99.90
1880;DHT22;49285;49.002;8.390;2023-02-14T11:03:20;6.30;99.90
1880;DHT22;49285;49.002;8.390;2023-02-14T11:05:47;6.30;99.90
1880;DHT22;49285;49.002;8.390;2023-02-14T11:08:27;6.40;99.90
1880;DHT22;49285;49.002;8.390;2023-02-14T11:11:20;6.50;99.90
1880;DHT22;49285;49.002;8.390;2023-02-14T11:13:43;6.50;99.90
1880;DHT22;49285;49.002;8.390;2023-02-14T11:16:11;6.60;99.90
1880;DHT22;49285;49.002;8.390;2023-02-14T11:18:39;6.60;99.90
1880;DHT22;49285;49.002;8.390;2023-02-14T11:21:10;6.70;99.90
1880;DHT22;49285;49.002;8.390;2023-02-14T11:23:42;6.70;99.90
1880;DHT22;49285;49.002;8.390;2023-02-14T11:26:29;6.70;99.90
1880;DHT22;49285;49.002;8.390;2023-02-14T11:29:00;6.70;99.90
1880;DHT22;49285;49.002;8.390;2023-02-14T11:31:31;6.70;99.90
1880;DHT22;49285;49.002;8.390;2023-02-14T11:33:58;6.80;99.90
1880;DHT22;49285;49.002;8.390;2023-02-14T11:36:25;6.90;99.90
1880;DHT22;49285;49.002;8.390;2023-02-14T11:39:21;7.00;99.90
1880;DHT22;49285;49.002;8.390;2023-02-14T11:41:52;7.10;99.90
1880;DHT22;49285;49.002;8.390;2023-02-14T11:44:23;7.20;99.90
1880;DHT22;49285;49.002;8.390;2023-02-14T11:46:51;7.20;99.90
1880;DHT22;49285;49.002;8.390;2023-02-14T11:51:53;7.40;99.90
1880;DHT22;49285;49.002;8.390;2023-02-14T11:54:34;7.40;99.90
1880;DHT22;49285;49.002;8.390;2023-02-14T11:57:13;7.50;99.90
1880;DHT22;49285;49.002;8.390;2023-02-14T11:59:47;7.60;99.90
1880;DHT22;49285;49.002;8.390;2023-02-14T12:02:40;7.70;99.90
1880;DHT22;49285;49.002;8.390;2023-02-14T12:07:45;7.80;99.90
1880;DHT22;49285;49.002;8.390;2023-02-14T12:12:53;8.00;99.90
1880;DHT22;49285;49.002;8.390;2023-02-14T12:15:26;8.10;99.90
1880;DHT22;49285;49.002;8.390;2023-02-14T12:18:46;8.80;99.90
1880;DHT22;49285;49.002;8.390;2023-02-14T12:26:42;10.00;99.90
1880;DHT22;49285;49.002;8.390;2023-02-14T12:32:00;9.90;99.90
1880;DHT22;49285;49.002;8.390;2023-02-14T12:34:26;9.80;99.90
1880;DHT22;49285;49.002;8.390;2023-02-14T12:37:12;9.70;99.90
1880;DHT22;49285;49.002;8.390;2023-02-14T12:40:14;9.70;99.90
1880;DHT22;49285;49.002;8.390;2023-02-14T12:42:54;9.60;99.90
1880;DHT22;49285;49.002;8.390;2023-02-14T12:50:28;9.20;99.90
1880;DHT22;49285;49.002;8.390;2023-02-14T12:53:23;9.30;99.90
1880;DHT22;49285;49.002;8.390;2023-02-14T12:55:59;9.20;99.90
1880;DHT22;49285;49.002;8.390;2023-02-14T12:58:40;9.30;99.90
1880;DHT22;49285;49.002;8.390;2023-02-14T13:04:38;9.60;99.90
1880;DHT22;49285;49.002;8.390;2023-02-14T13:07:39;9.90;99.90
1880;DHT22;49285;49.002;8.390;2023-02-14T13:11:04;10.20;99.90
1880;DHT22;49285;49.002;8.390;2023-02-14T13:13:57;10.10;99.90
1880;DHT22;49285;49.002;8.390;2023-02-14T13:21:51;10.50;99.90
1880;DHT22;49285;49.002;8.390;2023-02-14T13:24:42;10.70;99.90
1880;DHT22;49285;49.002;8.390;2023-02-14T13:27:12;10.80;99.90
1880;DHT22;49285;49.002;8.390;2023-02-14T13:29:49;10.90;99.90
1880;DHT22;49285;49.002;8.390;2023-02-14T13:32:19;11.00;99.90
1880;DHT22;49285;49.002;8.390;2023-02-14T13:34:47;11.10;99.90
1880;DHT22;49285;49.002;8.390;2023-02-14T13:37:15;11.20;99.90
1880;DHT22;49285;49.002;8.390;2023-02-14T13:39:52;11.30;99.90
1880;DHT22;49285;49.002;8.390;2023-02-14T13:48:24;11.30;99.90
1880;DHT22;49285;49.002;8.390;2023-02-14T13:53:47;11.60;99.90
1880;DHT22;49285;49.002;8.390;2023-02-14T13:58:52;11.70;99.90
1880;DHT22;49285;49.002;8.390;2023-02-14T14:19:57;12.50;99.90
1880;DHT22;49285;49.002;8.390;2023-02-14T14:22:23;12.40;99.90
1880;DHT22;49285;49.002;8.390;2023-02-14T14:24:56;12.40;99.90
1880;DHT22;49285;49.002;8.390;2023-02-14T14:27:26;12.40;99.90
1880;DHT22;49285;49.002;8.390;2023-02-14T14:32:35;12.40;99.90
1880;DHT22;49285;49.002;8.390;2023-02-14T14:35:15;12.60;99.90
1880;DHT22;49285;49.002;8.390;2023-02-14T14:37:51;12.70;99.90
1880;DHT22;49285;49.002;8.390;2023-02-14T14:40:29;12.60;99.90
1880;DHT22;49285;49.002;8.390;2023-02-14T14:43:23;12.60;99.90
1880;DHT22;49285;49.002;8.390;2023-02-14T14:45:48;12.60;99.90
1880;DHT22;49285;49.002;8.390;2023-02-14T14:48:20;12.60;99.90
1880;DHT22;49285;49.002;8.390;2023-02-14T14:50:47;12.40;99.90
1880;DHT22;49285;49.002;8.390;2023-02-14T14:53:44;12.40;99.90
1880;DHT22;49285;49.002;8.390;2023-02-14T14:56:30;12.30;99.90
1880;DHT22;49285;49.002;8.390;2023-02-14T14:58:57;12.30;99.90
1880;DHT22;49285;49.002;8.390;2023-02-14T15:01:36;12.20;99.90
1880;DHT22;49285;49.002;8.390;2023-02-14T15:06:38;12.20;99.90
1880;DHT22;49285;49.002;8.390;2023-02-14T15:09:17;12.10;99.90
1880;DHT22;49285;49.002;8.390;2023-02-14T15:11:43;12.10;99.90
1880;DHT22;49285;49.002;8.390;2023-02-14T15:14:36;12.00;99.90
1880;DHT22;49285;49.002;8.390;2023-02-14T15:17:05;11.90;99.90
1880;DHT22;49285;49.002;8.390;2023-02-14T15:19:39;11.80;99.90
1880;DHT22;49285;49.002;8.390;2023-02-14T15:22:17;11.80;99.90
1880;DHT22;49285;49.002;8.390;2023-02-14T15:24:44;11.70;99.90
1880;DHT22;49285;49.002;8.390;2023-02-14T15:27:21;11.60;99.90
1880;DHT22;49285;49.002;8.390;2023-02-14T15:30:03;11.50;99.90
1880;DHT22;49285;49.002;8.390;2023-02-14T15:32:31;11.40;99.90
1880;DHT22;49285;49.002;8.390;2023-02-14T15:35:01;11.40;99.90
1880;DHT22;49285;49.002;8.390;2023-02-14T15:37:28;11.30;99.90
1880;DHT22;49285;49.002;8.390;2023-02-14T15:39:55;11.30;99.90
1880;DHT22;49285;49.002;8.390;2023-02-14T15:42:30;11.10;99.90
1880;DHT22;49285;49.002;8.390;2023-02-14T15:47:47;10.90;99.90
1880;DHT22;49285;49.002;8.390;2023-02-14T15:50:24;10.90;99.90
1880;DHT22;49285;49.002;8.390;2023-02-14T15:52:54;10.80;99.90
1880;DHT22;49285;49.002;8.390;2023-02-14T15:55:23;10.60;99.90
1880;DHT22;49285;49.002;8.390;2023-02-14T15:57:58;10.60;99.90
1880;DHT22;49285;49.002;8.390;2023-02-14T16:00:25;10.40;99.90
1880;DHT22;49285;49.002;8.390;2023-02-14T16:03:12;10.30;99.90
1880;DHT22;49285;49.002;8.390;2023-02-14T16:05:47;10.20;99.90
1880;DHT22;49285;49.002;8.390;2023-02-14T16:11:06;10.10;99.90
1880;DHT22;49285;49.002;8.390;2023-02-14T16:13:39;10.00;99.90
1880;DHT22;49285;49.002;8.390;2023-02-14T16:16:08;9.90;99.90
1880;DHT22;49285;49.002;8.390;2023-02-14T16:18:41;9.80;99.90
1880;DHT22;49285;49.002;8.390;2023-02-14T16:26:38;9.60;99.90
1880;DHT22;49285;49.002;8.390;2023-02-14T16:29:05;9.50;99.90
1880;DHT22;49285;49.002;8.390;2023-02-14T16:31:31;9.50;99.90
1880;DHT22;49285;49.002;8.390;2023-02-14T16:33:57;9.40;99.90
1880;DHT22;49285;49.002;8.390;2023-02-14T16:36:28;9.30;99.90
1880;DHT22;49285;49.002;8.390;2023-02-14T16:38:55;9.20;99.90
1880;DHT22;49285;49.002;8.390;2023-02-14T16:41:22;9.20;99.90
1880;DHT22;49285;49.002;8.390;2023-02-14T16:43:49;9.10;99.90
1880;DHT22;49285;49.002;8.390;2023-02-14T16:46:18;9.00;99.90
1880;DHT22;49285;49.002;8.390;2023-02-14T16:48:44;9.00;99.90
1880;DHT22;49285;49.002;8.390;2023-02-14T16:51:14;8.90;99.90
1880;DHT22;49285;49.002;8.390;2023-02-14T16:53:41;8.80;99.90
1880;DHT22;49285;49.002;8.390;2023-02-14T16:59:00;8.70;99.90
1880;DHT22;49285;49.002;8.390;2023-02-14T17:01:26;8.60;99.90
1880;DHT22;49285;49.002;8.390;2023-02-14T17:03:51;8.50;99.90
1880;DHT22;49285;49.002;8.390;2023-02-14T17:06:21;8.50;99.90
1880;DHT22;49285;49.002;8.390;2023-02-14T17:08:50;8.40;99.90
1880;DHT22;49285;49.002;8.390;2023-02-14T17:11:16;8.40;99.90
1880;DHT22;49285;49.002;8.390;2023-02-14T17:13:43;8.40;99.90
1880;DHT22;49285;49.002;8.390;2023-02-14T17:16:11;8.30;99.90
1880;DHT22;49285;49.002;8.390;2023-02-14T17:18:40;8.20;99.90
1880;DHT22;49285;49.002;8.390;2023-02-14T17:21:07;8.20;99.90
1880;DHT22;49285;49.002;8.390;2023-02-14T17:23:32;8.10;99.90
1880;DHT22;49285;49.002;8.390;2023-02-14T17:25:58;8.10;99.90
1880;DHT22;49285;49.002;8.390;2023-02-14T17:28:23;8.10;99.90
1880;DHT22;49285;49.002;8.390;2023-02-14T17:30:52;8.00;99.90
1880;DHT22;49285;49.002;8.390;2023-02-14T17:33:18;8.00;99.90
1880;DHT22;49285;49.002;8.390;2023-02-14T17:35:44;7.90;99.90
1880;DHT22;49285;49.002;8.390;2023-02-14T17:38:10;7.90;99.90
1880;DHT22;49285;49.002;8.390;2023-02-14T17:40:36;7.90;99.90
1880;DHT22;49285;49.002;8.390;2023-02-14T17:43:02;7.90;99.90
1880;DHT22;49285;49.002;8.390;2023-02-14T17:45:27;7.80;99.90
1880;DHT22;49285;49.002;8.390;2023-02-14T17:47:53;7.80;99.90
1880;DHT22;49285;49.002;8.390;2023-02-14T17:50:19;7.70;99.90
1880;DHT22;49285;49.002;8.390;2023-02-14T17:52:44;7.70;99.90
1880;DHT22;49285;49.002;8.390;2023-02-14T17:55:10;7.70;99.90
1880;DHT22;49285;49.002;8.390;2023-02-14T17:57:36;7.60;99.90
1880;DHT22;49285;49.002;8.390;2023-02-14T18:00:06;7.60;99.90
1880;DHT22;49285;49.002;8.390;2023-02-14T18:02:31;7.40;99.90
1880;DHT22;49285;49.002;8.390;2023-02-14T18:04:57;7.40;99.90
1880;DHT22;49285;49.002;8.390;2023-02-14T18:07:23;7.30;99.90
1880;DHT22;49285;49.002;8.390;2023-02-14T18:09:49;7.20;99.90
1880;DHT22;49285;49.002;8.390;2023-02-14T18:12:15;7.10;99.90
1880;DHT22;49285;49.002;8.390;2023-02-14T18:14:41;7.00;99.90
1880;DHT22;49285;49.002;8.390;2023-02-14T18:17:06;7.00;99.90
1880;DHT22;49285;49.002;8.390;2023-02-14T18:19:32;6.90;99.90
1880;DHT22;49285;49.002;8.390;2023-02-14T18:21:58;6.90;99.90
1880;DHT22;49285;49.002;8.390;2023-02-14T18:24:24;6.80;99.90
1880;DHT22;49285;49.002;8.390;2023-02-14T18:26:49;6.80;99.90
1880;DHT22;49285;49.002;8.390;2023-02-14T18:29:16;6.70;99.90
1880;DHT22;49285;49.002;8.390;2023-02-14T18:31:42;6.70;99.90
1880;DHT22;49285;49.002;8.390;2023-02-14T18:34:08;6.70;99.90
1880;DHT22;49285;49.002;8.390;2023-02-14T18:36:37;6.60;99.90
1880;DHT22;49285;49.002;8.390;2023-02-14T18:39:04;6.60;99.90
1880;DHT22;49285;49.002;8.390;2023-02-14T18:41:30;6.50;99.90
1880;DHT22;49285;49.002;8.390;2023-02-14T18:43:56;6.50;99.90
1880;DHT22;49285;49.002;8.390;2023-02-14T18:46:24;6.50;99.90
1880;DHT22;49285;49.002;8.390;2023-02-14T18:48:50;6.50;99.90